OIBK

Kish International Airport

Kish Island, Iran
METAR OIBK 210900Z 15006KT CAVOK 22/04 Q1018
Observed Flight Rules
Jan-21 @ 09:00 UTC (45 minutes ago) Visual Flight Rules
Wind Visibility Clouds
150° at 6 knots 10,000+ meters
  • Clear skies
Temperatures Readings
Current 22°C / 72°F
Dewpoint 4°C / 39°F
Humidity 31%
Altimeter 30.06" Hg
Pressure 1017.92 hPa
Elevation 30
METAR OIBK 210900Z 15006KT CAVOK 22/04 Q1018
Observed Flight Rules
Jan-21 @ 09:00 UTC
(45 minutes ago)
VFR
Wind Visibility
150° at 6 knots 10,000+ meters
Clouds
  • Clear skies
Temperature Dewpoint
22°C / 72°F 4°C / 39°F
Humidity Altimeter Pressure
31% 30.06" Hg 1017.92 hPa